Stolt Shearwater — ZCRD9 — position and weather

sailwx.info

Track history (hours):
 
Tides and Currents Weather Stations Pressure Air Temp Water Temp Dewpoint Dewpoint Depression Visibility Wind Speed Wind Dir Waves Ship Positions

Stolt Shearwater

Last reported at 2017-Mar-25 18:19 UTC. Time now 2017-Mar-27 10:36 UTC.
Position N 52°31' W 009°58'.

Length 96 m; draft 6.3 m.

Type: Ship (hazmat cat B). MMSI: 319402000.

Date/timePositionNaut miles runAvg speedWind from/ knotsBaromVisibWave heightAir tempDewpointWater temp
2017-Mar-25 18:19N 52°31' W 009°58'5010.1
2017-Mar-25 13:25N 53°13' W 010°43'14 7.0
2017-Mar-25 11:23N 53°26' W 010°34'2311.1
2017-Mar-25 09:18N 53°49' W 010°35'910.8
2017-Mar-25 08:31N 53°58' W 010°36'1110.3
2017-Mar-25 07:28N 54°09' W 010°33'1010.4
2017-Mar-25 06:27N 54°17' W 010°23'1010.4
2017-Mar-25 05:30N 54°26' W 010°14'1010.6
2017-Mar-25 04:31N 54°34' W 010°04'6410.7
2017-Mar-24 22:33N 55°28' W 009°02'1111.0
2017-Mar-24 21:30N 55°37' W 008°51'1111.1
2017-Mar-24 20:31N 55°46' W 008°40'2511.1
2017-Mar-24 18:15N 56°07' W 008°15'20210.1
2017-Mar-23 22:19N 58°43' W 004°17'911.4
2017-Mar-23 21:33N 58°43' W 004°00'1111.0
2017-Mar-23 20:33N 58°43' W 003°39'1110.3
2017-Mar-23 19:30N 58°43' W 003°18'8 8.5
2017-Mar-23 18:34N 58°43' W 003°03'9 8.6
2017-Mar-23 17:33N 58°42' W 002°47'28210.8
2017-Mar-22 15:33N 57°53' E 006°01'1010.2
2017-Mar-22 14:33N 57°51' E 006°20'1110.5
2017-Mar-22 13:33N 57°48' E 006°39'1010.3
2017-Mar-22 12:33N 57°48' E 006°58'10 9.6
2017-Mar-22 11:33N 57°48' E 007°16'9 9.4
2017-Mar-22 10:33N 57°47' E 007°34'8 8.3
2017-Mar-22 09:33N 57°47' E 007°50'8 8.3
2017-Mar-22 08:33N 57°54' E 007°59'9 9.2
2017-Mar-22 07:33N 58°02' E 008°05'7 6.9
2017-Mar-22 06:33N 58°08' E 007°58'0 0.0
2017-Mar-22 05:33N 58°08' E 007°58'0 0.0
2017-Mar-22 04:33N 58°08' E 007°58'0 0.0
2017-Mar-22 03:33N 58°08' E 007°58'0 0.0
2017-Mar-22 02:33N 58°08' E 007°58'0 0.0
2017-Mar-22 01:33N 58°08' E 007°58'0 0.0
2017-Mar-22 00:33N 58°08' E 007°58'0 0.0
2017-Mar-21 23:33N 58°08' E 007°58'0 0.0
2017-Mar-21 22:33N 58°08' E 007°58'0 0.0
2017-Mar-21 21:33N 58°08' E 007°58'0 0.0
2017-Mar-21 20:33N 58°08' E 007°58'0 0.0
2017-Mar-21 19:33N 58°08' E 007°58'0 0.0
2017-Mar-21 18:33N 58°08' E 007°58'0 0.0
2017-Mar-21 17:33N 58°08' E 007°58'0 0.0
2017-Mar-21 16:33N 58°08' E 007°58'1 0.6
2017-Mar-21 15:33N 58°08' E 007°59'9 9.2
2017-Mar-21 14:33N 58°01' E 008°11'9 8.9
2017-Mar-21 13:34N 57°52' E 008°07'  
2017-Mar-18 01:34N 54°31' W 000°26'7 6.5
2017-Mar-18 00:34N 54°28' W 000°16'7 6.9
2017-Mar-17 23:33N 54°26' W 000°05'7 6.6
2017-Mar-17 22:34N 54°23' E 000°05'6 6.4
2017-Mar-17 21:34N 54°18' E 000°13'7 6.9
2017-Mar-17 20:34N 54°12' E 000°17'7 7.2
2017-Mar-17 19:34N 54°05' E 000°21'20 8.4
2017-Mar-17 17:09N 53°45' E 000°27'17 9.4
2017-Mar-17 15:20N 53°34' E 000°06'911.6
2017-Mar-17 14:33N 53°38' W 000°08'2 0.1
2017-Mar-16 18:04N 53°38' W 000°11'0 0.0
2017-Mar-16 08:34N 53°38' W 000°11'1 0.9
2017-Mar-16 07:33N 53°38' W 000°09'  
Track history (hours):
 
Tides and Currents Weather Stations Pressure Air Temp Water Temp Dewpoint Dewpoint Depression Visibility Wind Speed Wind Dir Waves Ship Positions

Stolt Shearwater

Last reported at 2017-Mar-25 18:19 UTC. Time now 2017-Mar-27 10:36 UTC.
Position N 52°31' W 009°58'.

Length 96 m; draft 6.3 m.

Type: Ship (hazmat cat B). MMSI: 319402000.

Date/timePositionNaut miles runAvg speedWind from/ knotsBaromVisibWave heightAir tempDewpointWater temp
2017-Mar-25 18:19N 52°31' W 009°58'5010.1
2017-Mar-25 13:25N 53°13' W 010°43'14 7.0
2017-Mar-25 11:23N 53°26' W 010°34'2311.1
2017-Mar-25 09:18N 53°49' W 010°35'910.8
2017-Mar-25 08:31N 53°58' W 010°36'1110.3
2017-Mar-25 07:28N 54°09' W 010°33'1010.4
2017-Mar-25 06:27N 54°17' W 010°23'1010.4
2017-Mar-25 05:30N 54°26' W 010°14'1010.6
2017-Mar-25 04:31N 54°34' W 010°04'6410.7
2017-Mar-24 22:33N 55°28' W 009°02'1111.0
2017-Mar-24 21:30N 55°37' W 008°51'1111.1
2017-Mar-24 20:31N 55°46' W 008°40'2511.1
2017-Mar-24 18:15N 56°07' W 008°15'20210.1
2017-Mar-23 22:19N 58°43' W 004°17'911.4
2017-Mar-23 21:33N 58°43' W 004°00'1111.0
2017-Mar-23 20:33N 58°43' W 003°39'1110.3
2017-Mar-23 19:30N 58°43' W 003°18'8 8.5
2017-Mar-23 18:34N 58°43' W 003°03'9 8.6
2017-Mar-23 17:33N 58°42' W 002°47'28210.8
2017-Mar-22 15:33N 57°53' E 006°01'1010.2
2017-Mar-22 14:33N 57°51' E 006°20'1110.5
2017-Mar-22 13:33N 57°48' E 006°39'1010.3
2017-Mar-22 12:33N 57°48' E 006°58'10 9.6
2017-Mar-22 11:33N 57°48' E 007°16'9 9.4
2017-Mar-22 10:33N 57°47' E 007°34'8 8.3
2017-Mar-22 09:33N 57°47' E 007°50'8 8.3
2017-Mar-22 08:33N 57°54' E 007°59'9 9.2
2017-Mar-22 07:33N 58°02' E 008°05'7 6.9
2017-Mar-22 06:33N 58°08' E 007°58'0 0.0
2017-Mar-22 05:33N 58°08' E 007°58'0 0.0
2017-Mar-22 04:33N 58°08' E 007°58'0 0.0
2017-Mar-22 03:33N 58°08' E 007°58'0 0.0
2017-Mar-22 02:33N 58°08' E 007°58'0 0.0
2017-Mar-22 01:33N 58°08' E 007°58'0 0.0
2017-Mar-22 00:33N 58°08' E 007°58'0 0.0
2017-Mar-21 23:33N 58°08' E 007°58'0 0.0
2017-Mar-21 22:33N 58°08' E 007°58'0 0.0
2017-Mar-21 21:33N 58°08' E 007°58'0 0.0
2017-Mar-21 20:33N 58°08' E 007°58'0 0.0
2017-Mar-21 19:33N 58°08' E 007°58'0 0.0
2017-Mar-21 18:33N 58°08' E 007°58'0 0.0
2017-Mar-21 17:33N 58°08' E 007°58'0 0.0
2017-Mar-21 16:33N 58°08' E 007°58'1 0.6
2017-Mar-21 15:33N 58°08' E 007°59'9 9.2
2017-Mar-21 14:33N 58°01' E 008°11'9 8.9
2017-Mar-21 13:34N 57°52' E 008°07'  
2017-Mar-18 01:34N 54°31' W 000°26'7 6.5
2017-Mar-18 00:34N 54°28' W 000°16'7 6.9
2017-Mar-17 23:33N 54°26' W 000°05'7 6.6
2017-Mar-17 22:34N 54°23' E 000°05'6 6.4
2017-Mar-17 21:34N 54°18' E 000°13'7 6.9
2017-Mar-17 20:34N 54°12' E 000°17'7 7.2
2017-Mar-17 19:34N 54°05' E 000°21'20 8.4
2017-Mar-17 17:09N 53°45' E 000°27'17 9.4
2017-Mar-17 15:20N 53°34' E 000°06'911.6
2017-Mar-17 14:33N 53°38' W 000°08'2 0.1
2017-Mar-16 18:04N 53°38' W 000°11'0 0.0
2017-Mar-16 08:34N 53°38' W 000°11'1 0.9
2017-Mar-16 07:33N 53°38' W 000°09'  

Dump ship's entire track history